createdAt,value
2018-02-23T00:00:58.355Z,-2.26
2018-02-23T00:03:28.381Z,-2.29
2018-02-23T00:06:00.913Z,-2.34
2018-02-23T00:08:33.305Z,-2.32
2018-02-23T00:11:04.460Z,-2.33
2018-02-23T00:13:34.764Z,-2.29
2018-02-23T00:16:04.855Z,-2.29
2018-02-23T00:18:34.271Z,-2.35
2018-02-23T00:21:04.205Z,-2.36
2018-02-23T00:23:34.254Z,-2.39
2018-02-23T00:26:04.982Z,-2.42
2018-02-23T00:28:35.610Z,-2.48
2018-02-23T00:31:05.266Z,-2.40
2018-02-23T00:33:34.732Z,-2.36
2018-02-23T00:36:04.443Z,-2.36
2018-02-23T00:38:33.976Z,-2.48
2018-02-23T00:41:03.696Z,-2.40
2018-02-23T00:43:34.062Z,-2.33
2018-02-23T00:46:04.338Z,-2.47
2018-02-23T00:48:34.106Z,-2.51
2018-02-23T00:51:04.169Z,-2.52
2018-02-23T00:53:33.617Z,-2.56
2018-02-23T00:56:03.610Z,-2.61
2018-02-23T00:58:33.737Z,-2.63
2018-02-23T01:01:03.408Z,-2.62
2018-02-23T01:03:33.159Z,-2.65
2018-02-23T01:06:03.008Z,-2.96
2018-02-23T01:08:34.492Z,-2.66
2018-02-23T01:11:04.630Z,-2.80
2018-02-23T01:13:34.761Z,-2.76
2018-02-23T01:16:04.679Z,-2.72
2018-02-23T01:18:34.549Z,-2.78
2018-02-23T01:21:04.088Z,-2.80
2018-02-23T01:23:34.316Z,-2.79
2018-02-23T01:26:04.151Z,-2.82
2018-02-23T01:28:34.030Z,-2.80
2018-02-23T01:31:05.051Z,-2.92
2018-02-23T01:33:34.831Z,-2.79
2018-02-23T01:36:04.599Z,-2.81
2018-02-23T01:38:36.534Z,-2.91
2018-02-23T01:41:07.980Z,-2.89
2018-02-23T01:43:39.304Z,-2.95
2018-02-23T01:46:09.511Z,-2.92
2018-02-23T01:48:39.956Z,-2.93
2018-02-23T01:51:12.736Z,-2.93
2018-02-23T01:53:43.425Z,-2.91
2018-02-23T01:56:14.324Z,-2.93
2018-02-23T01:58:44.322Z,-2.99
2018-02-23T02:01:16.502Z,-3.01
2018-02-23T02:03:46.371Z,-3.05
2018-02-23T02:06:15.996Z,-3.06
2018-02-23T02:08:45.672Z,-3.09
2018-02-23T02:11:16.232Z,-3.07
2018-02-23T02:13:46.045Z,-3.11
2018-02-23T02:16:16.343Z,-3.15
2018-02-23T02:18:46.452Z,-3.19
2018-02-23T02:21:17.599Z,-3.21
2018-02-23T02:23:47.534Z,-3.18
2018-02-23T02:26:17.466Z,-3.17
2018-02-23T02:28:47.294Z,-3.21
2018-02-23T02:31:16.722Z,-3.25
2018-02-23T02:33:46.421Z,-3.24
2018-02-23T02:36:17.294Z,-3.36
2018-02-23T02:38:47.066Z,-3.33
2018-02-23T02:41:17.177Z,-3.30
2018-02-23T02:43:46.779Z,-3.38
2018-02-23T02:46:17.389Z,-3.36
2018-02-23T02:48:47.036Z,-3.48
2018-02-23T02:51:16.474Z,-3.40
2018-02-23T02:53:46.252Z,-3.43
2018-02-23T02:56:16.135Z,-3.47
2018-02-23T02:58:46.329Z,-3.36
2018-02-23T03:01:15.751Z,-3.43
2018-02-23T03:03:45.328Z,-3.26
2018-02-23T03:06:15.691Z,-3.26
2018-02-23T03:08:45.626Z,-3.30
2018-02-23T03:11:15.056Z,-3.29
2018-02-23T03:13:45.019Z,-3.23
2018-02-23T03:16:14.855Z,-3.24
2018-02-23T03:18:44.406Z,-3.45
2018-02-23T03:21:14.683Z,-3.40
2018-02-23T03:23:44.848Z,-3.37
2018-02-23T03:26:14.764Z,-3.35
2018-02-23T03:28:44.729Z,-3.51
2018-02-23T03:31:16.107Z,-3.39
2018-02-23T03:33:47.978Z,-3.43
2018-02-23T03:36:18.004Z,-3.48
2018-02-23T03:38:47.793Z,-3.50
2018-02-23T03:41:17.734Z,-3.53
2018-02-23T03:43:48.049Z,-3.51
2018-02-23T03:46:17.916Z,-3.57
2018-02-23T03:48:47.646Z,-3.51
2018-02-23T03:51:17.820Z,-3.55
2018-02-23T03:53:47.464Z,-3.50
2018-02-23T03:56:17.380Z,-3.59
2018-02-23T03:58:47.800Z,-3.50
2018-02-23T04:01:17.649Z,-3.56
2018-02-23T04:03:47.365Z,-3.52
2018-02-23T04:06:18.432Z,-3.52
2018-02-23T04:08:48.416Z,-3.58
2018-02-23T04:11:19.051Z,-3.68
2018-02-23T04:13:49.245Z,-3.68
2018-02-23T04:16:18.803Z,-3.76
2018-02-23T04:18:48.428Z,-3.65
2018-02-23T04:21:18.061Z,-3.63
2018-02-23T04:23:47.849Z,-3.66
2018-02-23T04:26:17.668Z,-3.74
2018-02-23T04:28:48.039Z,-3.69
2018-02-23T04:31:18.051Z,-3.79
2018-02-23T04:33:48.211Z,-3.72
2018-02-23T04:36:18.373Z,-3.76
2018-02-23T04:38:48.122Z,-3.69
2018-02-23T04:41:18.754Z,-3.75
2018-02-23T04:43:48.442Z,-3.75
2018-02-23T04:46:18.241Z,-3.78
2018-02-23T04:48:48.126Z,-3.70
2018-02-23T04:51:18.666Z,-3.79
2018-02-23T04:53:48.414Z,-3.83
2018-02-23T04:56:18.483Z,-3.81
2018-02-23T04:58:48.231Z,-3.83
2018-02-23T05:01:18.145Z,-3.89
2018-02-23T05:03:48.027Z,-3.87
2018-02-23T05:06:17.897Z,-3.89
2018-02-23T05:08:48.017Z,-3.94
2018-02-23T05:11:17.797Z,-3.87
2018-02-23T05:13:47.636Z,-3.92
2018-02-23T05:16:17.891Z,-3.87
2018-02-23T05:18:47.773Z,-3.89
2018-02-23T05:21:17.504Z,-3.98
2018-02-23T05:23:47.242Z,-3.94
2018-02-23T05:26:17.112Z,-3.93
2018-02-23T05:28:46.971Z,-3.96
2018-02-23T05:31:17.220Z,-4.03
2018-02-23T05:33:46.831Z,-4.08
2018-02-23T05:36:16.771Z,-3.96
2018-02-23T05:38:47.316Z,-3.94
2018-02-23T05:41:17.263Z,-3.95
2018-02-23T05:43:46.800Z,-4.02
2018-02-23T05:46:16.538Z,-3.95
2018-02-23T05:48:46.394Z,-3.98
2018-02-23T05:51:16.773Z,-3.99
2018-02-23T05:53:52.305Z,-3.98
2018-02-23T05:56:22.036Z,-4.14
2018-02-23T05:58:51.583Z,-4.01
2018-02-23T06:01:21.683Z,-4.01
2018-02-23T06:03:51.125Z,-4.01
2018-02-23T06:06:20.554Z,-3.94
2018-02-23T06:08:50.938Z,-3.85
2018-02-23T06:11:21.485Z,-3.96
2018-02-23T06:13:51.377Z,-3.96
2018-02-23T06:16:26.566Z,-3.91
2018-02-23T06:18:58.788Z,-3.87
2018-02-23T06:21:29.127Z,-3.93
2018-02-23T06:24:00.957Z,-4.01
2018-02-23T06:26:30.823Z,-3.88
2018-02-23T06:29:01.251Z,-3.94
2018-02-23T06:31:31.064Z,-3.87
2018-02-23T06:34:00.590Z,-3.85
2018-02-23T06:36:30.609Z,-3.83
2018-02-23T06:39:01.151Z,-4.50
2018-02-23T06:41:30.827Z,-3.88
2018-02-23T06:44:00.957Z,-3.75
2018-02-23T06:46:30.411Z,-3.74
2018-02-23T06:48:59.918Z,-3.71
2018-02-23T06:51:30.078Z,-3.75
2018-02-23T06:54:04.131Z,-4.22
2018-02-23T06:56:34.018Z,-3.99
2018-02-23T06:59:03.459Z,-3.86
2018-02-23T07:01:33.520Z,-3.84
2018-02-23T07:04:03.345Z,-3.73
2018-02-23T07:06:33.336Z,-4.01
2018-02-23T07:09:03.106Z,-3.78
2018-02-23T07:11:33.337Z,-3.69
2018-02-23T07:14:03.774Z,-3.64
2018-02-23T07:16:33.479Z,-3.53
2018-02-23T07:19:02.991Z,-3.50
2018-02-23T07:21:33.068Z,-3.33
2018-02-23T07:24:04.173Z,-3.23
2018-02-23T07:26:34.303Z,-3.28
2018-02-23T07:29:04.600Z,-3.08
2018-02-23T07:31:34.363Z,-3.09
2018-02-23T07:34:05.063Z,-3.02
2018-02-23T07:36:35.149Z,-2.93
2018-02-23T07:39:05.866Z,-2.98
2018-02-23T07:41:35.944Z,-2.83
2018-02-23T07:44:05.548Z,-2.77
2018-02-23T07:46:36.205Z,-2.79
2018-02-23T07:49:07.061Z,-2.64
2018-02-23T07:51:36.809Z,-2.56
2018-02-23T07:54:06.772Z,-2.51
2018-02-23T07:56:36.561Z,-2.35
2018-02-23T07:59:06.488Z,-2.27
2018-02-23T08:01:36.344Z,-2.04
2018-02-23T08:04:06.211Z,-2.09
2018-02-23T08:06:36.709Z,-2.05
2018-02-23T08:09:06.739Z,-2.06
2018-02-23T08:11:36.306Z,-2.00
2018-02-23T08:14:05.873Z,-1.95
2018-02-23T08:16:35.914Z,-1.91
2018-02-23T08:19:05.944Z,-1.94
2018-02-23T08:21:35.783Z,-1.86
2018-02-23T08:24:05.483Z,-1.65
2018-02-23T08:26:35.635Z,-1.89
2018-02-23T08:29:05.787Z,-1.79
2018-02-23T08:31:35.494Z,-1.48
2018-02-23T08:34:05.698Z,-1.51
2018-02-23T08:36:35.777Z,-1.34
2018-02-23T08:39:05.526Z,-1.18
2018-02-23T08:41:35.071Z,-1.12
2018-02-23T08:44:04.536Z,-1.13
2018-02-23T08:46:34.234Z,-0.87
2018-02-23T08:49:04.318Z,-0.83
2018-02-23T08:51:34.181Z,-0.78
2018-02-23T08:54:03.993Z,-0.72
2018-02-23T08:56:33.944Z,-0.72
2018-02-23T08:59:03.443Z,-0.44
2018-02-23T09:01:32.954Z,-0.40
2018-02-23T09:04:02.915Z,-0.55
2018-02-23T09:06:32.841Z,-0.60
2018-02-23T09:09:02.371Z,-0.64
2018-02-23T09:11:33.707Z,-0.61
2018-02-23T09:14:03.365Z,-0.64
2018-02-23T09:16:34.307Z,-0.50
2018-02-23T09:19:03.881Z,-0.27
2018-02-23T09:21:33.547Z,-0.21
2018-02-23T09:24:03.375Z,-0.31
2018-02-23T09:26:33.908Z,0.07
2018-02-23T09:29:03.959Z,0.32
2018-02-23T09:31:34.190Z,0.15
2018-02-23T09:35:06.699Z,0.29
2018-02-23T09:37:36.895Z,0.18
2018-02-23T09:40:07.627Z,0.18
2018-02-23T09:42:37.246Z,0.43
2018-02-23T09:45:07.204Z,0.69
2018-02-23T09:47:37.162Z,0.77
2018-02-23T09:50:06.680Z,0.77
2018-02-23T09:52:36.763Z,0.81
2018-02-23T09:55:06.656Z,0.47
2018-02-23T09:57:36.953Z,0.30
2018-02-23T10:00:07.276Z,0.14
2018-02-23T10:02:37.212Z,-0.02
2018-02-23T10:05:07.252Z,0.15
2018-02-23T10:07:37.643Z,0.54
2018-02-23T10:10:07.416Z,0.58
2018-02-23T10:12:37.237Z,0.72
2018-02-23T10:15:06.828Z,0.97
2018-02-23T10:17:36.263Z,1.08
2018-02-23T10:20:06.510Z,1.24
2018-02-23T10:22:35.986Z,1.23
2018-02-23T10:25:05.115Z,1.00
2018-02-23T10:27:35.056Z,1.07
2018-02-23T10:30:05.182Z,1.24
2018-02-23T10:32:35.079Z,1.22
2018-02-23T10:35:05.150Z,1.10
2018-02-23T10:37:34.626Z,1.21
2018-02-23T10:40:04.498Z,0.94
2018-02-23T10:42:34.084Z,0.96
2018-02-23T10:45:03.666Z,1.16
2018-02-23T10:47:33.525Z,1.23
2018-02-23T10:50:03.979Z,1.18
2018-02-23T10:52:33.960Z,1.52
2018-02-23T10:55:03.372Z,1.55
2018-02-23T10:57:32.909Z,1.74
2018-02-23T11:00:03.880Z,1.84
2018-02-23T11:02:33.471Z,1.67
2018-02-23T11:05:03.066Z,1.58
2018-02-23T11:07:32.596Z,1.61
2018-02-23T11:10:02.034Z,1.66
2018-02-23T11:12:32.514Z,1.96
2018-02-23T11:15:02.219Z,2.16
2018-02-23T11:17:31.795Z,2.24
2018-02-23T11:20:01.515Z,2.09
2018-02-23T11:22:30.947Z,1.79
2018-02-23T11:25:01.425Z,1.71
2018-02-23T11:27:31.315Z,1.85
2018-02-23T11:30:02.131Z,1.87
2018-02-23T11:32:31.666Z,1.84
2018-02-23T11:35:01.113Z,1.99
2018-02-23T11:37:30.546Z,2.24
2018-02-23T11:40:01.005Z,2.45
2018-02-23T11:42:30.862Z,2.47
2018-02-23T11:45:00.368Z,2.53
2018-02-23T11:47:30.073Z,2.45
2018-02-23T11:49:59.539Z,2.54
2018-02-23T11:52:29.076Z,2.66
2018-02-23T11:55:00.273Z,2.74
2018-02-23T11:57:34.641Z,2.50
2018-02-23T12:00:05.275Z,2.66
2018-02-23T12:02:36.004Z,2.59
2018-02-23T12:05:06.625Z,2.62
2018-02-23T12:07:36.354Z,2.75
2018-02-23T12:10:06.218Z,2.78
2018-02-23T12:12:36.345Z,2.77
2018-02-23T12:15:05.992Z,3.08
2018-02-23T12:17:35.745Z,2.52
2018-02-23T12:20:05.302Z,2.51
2018-02-23T12:22:34.683Z,2.54
2018-02-23T12:25:04.220Z,2.69
2018-02-23T12:27:33.732Z,2.80
2018-02-23T12:30:03.702Z,2.86
2018-02-23T12:32:33.590Z,3.24
2018-02-23T12:35:03.141Z,2.98
2018-02-23T12:37:32.594Z,3.05
2018-02-23T12:40:02.157Z,2.75
2018-02-23T12:42:31.702Z,2.68
2018-02-23T12:45:01.738Z,2.66
2018-02-23T12:47:31.871Z,3.03
2018-02-23T12:50:02.572Z,2.93
2018-02-23T12:52:32.110Z,3.08
2018-02-23T12:55:02.285Z,3.05
2018-02-23T12:57:32.820Z,3.23
2018-02-23T13:00:02.679Z,3.38
2018-02-23T13:02:33.317Z,3.44
2018-02-23T13:05:03.027Z,3.59
2018-02-23T13:07:33.161Z,3.47
2018-02-23T13:10:03.257Z,3.00
2018-02-23T13:12:33.114Z,2.92
2018-02-23T13:15:06.803Z,2.92
2018-02-23T13:17:36.620Z,2.99
2018-02-23T13:20:06.135Z,2.98
2018-02-23T13:22:35.559Z,3.24
2018-02-23T13:25:05.625Z,3.37
2018-02-23T13:27:35.079Z,3.41
2018-02-23T13:30:04.669Z,3.38
2018-02-23T13:32:34.806Z,3.51
2018-02-23T13:35:04.533Z,3.43
2018-02-23T13:37:34.085Z,3.35
2018-02-23T13:40:05.806Z,3.08
2018-02-23T13:42:37.032Z,3.19
2018-02-23T13:45:07.825Z,3.42
2018-02-23T13:47:38.373Z,3.34
2018-02-23T13:50:09.711Z,3.56
2018-02-23T13:52:39.247Z,3.58
2018-02-23T13:55:10.153Z,3.46
2018-02-23T13:57:39.682Z,3.54
2018-02-23T14:00:09.407Z,3.53
2018-02-23T14:02:39.183Z,3.15
2018-02-23T14:05:09.822Z,3.06
2018-02-23T14:07:43.797Z,2.95
2018-02-23T14:10:15.635Z,2.92
2018-02-23T14:12:45.701Z,3.08
2018-02-23T14:15:15.537Z,2.83
2018-02-23T14:17:46.011Z,2.89
2018-02-23T14:20:17.426Z,2.90
2018-02-23T14:22:47.377Z,2.96
2018-02-23T14:25:17.306Z,3.06
2018-02-23T14:27:47.235Z,2.97
2018-02-23T14:30:16.832Z,2.98
2018-02-23T14:32:47.595Z,3.00
2018-02-23T14:35:18.111Z,2.95
2018-02-23T14:37:48.745Z,2.75
2018-02-23T14:40:18.853Z,2.69
2018-02-23T14:42:48.340Z,2.74
2018-02-23T14:45:18.306Z,2.68
2018-02-23T14:47:48.535Z,2.48
2018-02-23T14:50:29.019Z,2.51
2018-02-23T14:52:59.279Z,2.18
2018-02-23T14:55:29.477Z,1.95
2018-02-23T14:57:59.458Z,2.01
2018-02-23T15:00:31.200Z,2.02
2018-02-23T15:03:02.194Z,2.05
2018-02-23T15:05:32.145Z,2.17
2018-02-23T15:08:01.986Z,2.40
2018-02-23T15:10:31.740Z,2.78
2018-02-23T15:13:02.575Z,2.66
2018-02-23T15:15:32.366Z,2.24
2018-02-23T15:18:01.811Z,1.76
2018-02-23T15:20:32.739Z,1.64
2018-02-23T15:23:03.076Z,1.55
2018-02-23T15:25:32.542Z,1.50
2018-02-23T15:28:02.258Z,1.33
2018-02-23T15:30:41.590Z,1.38
2018-02-23T15:33:12.432Z,1.21
2018-02-23T15:35:43.534Z,1.17
2018-02-23T15:38:13.163Z,1.13
2018-02-23T15:40:45.498Z,1.01
2018-02-23T15:43:15.145Z,0.92
2018-02-23T15:45:44.690Z,0.80
2018-02-23T15:48:16.463Z,0.62
2018-02-23T15:50:46.118Z,0.59
2018-02-23T15:53:15.730Z,0.53
2018-02-23T15:55:45.631Z,0.49
2018-02-23T15:58:15.513Z,0.42
2018-02-23T16:00:47.343Z,0.53
2018-02-23T16:03:17.549Z,0.54
2018-02-23T16:05:47.168Z,0.41
2018-02-23T16:08:16.941Z,0.36
2018-02-23T16:10:46.778Z,0.47
2018-02-23T16:13:18.675Z,0.32
2018-02-23T16:15:48.948Z,0.09
2018-02-23T16:18:18.820Z,0.12
2018-02-23T16:20:48.256Z,0.30
2018-02-23T16:23:17.963Z,0.16
2018-02-23T16:25:47.738Z,0.15
2018-02-23T16:28:17.212Z,0.08
2018-02-23T16:30:46.781Z,-0.12
2018-02-23T16:33:16.567Z,-0.24
2018-02-23T16:35:46.623Z,-0.38
2018-02-23T16:38:16.763Z,-0.33
2018-02-23T16:40:46.446Z,-0.45
2018-02-23T16:43:15.969Z,-0.57
2018-02-23T16:45:45.935Z,-0.59
2018-02-23T16:48:16.505Z,-0.64
2018-02-23T16:50:46.232Z,-0.67
2018-02-23T16:53:16.679Z,-0.73
2018-02-23T16:55:46.548Z,-0.83
2018-02-23T16:58:16.103Z,-0.81
2018-02-23T17:00:46.894Z,-0.77
2018-02-23T17:03:17.465Z,-0.83
2018-02-23T17:05:47.730Z,-0.83
2018-02-23T17:08:17.897Z,-0.91
2018-02-23T17:10:48.472Z,-1.01
2018-02-23T17:13:18.946Z,-1.07
2018-02-23T17:15:48.804Z,-1.00
2018-02-23T17:18:18.728Z,-1.20
2018-02-23T17:20:48.639Z,-1.04
2018-02-23T17:23:18.741Z,-1.20
2018-02-23T17:25:48.725Z,-1.22
2018-02-23T17:28:18.198Z,-1.22
2018-02-23T17:30:47.649Z,-1.30
2018-02-23T17:33:18.637Z,-1.34
2018-02-23T17:35:48.173Z,-1.41
2018-02-23T17:38:17.629Z,-1.44
2018-02-23T17:40:47.870Z,-1.51
2018-02-23T17:43:17.413Z,-1.50
2018-02-23T17:45:46.947Z,-1.58
2018-02-23T17:48:16.988Z,-1.61
2018-02-23T17:50:46.693Z,-1.60
2018-02-23T17:53:17.310Z,-1.58
2018-02-23T17:55:47.260Z,-1.57
2018-02-23T17:58:16.868Z,-1.68
2018-02-23T18:00:47.439Z,-1.65
2018-02-23T18:03:17.853Z,-1.71
2018-02-23T18:05:48.149Z,-1.75
2018-02-23T18:08:18.272Z,-1.76
2018-02-23T18:10:47.840Z,-1.85
2018-02-23T18:13:17.601Z,-1.70
2018-02-23T18:15:47.539Z,-1.90
2018-02-23T18:18:17.259Z,-1.85
2018-02-23T18:20:46.803Z,-2.12
2018-02-23T18:23:16.796Z,-2.14
2018-02-23T18:25:46.246Z,-1.75
2018-02-23T18:28:16.540Z,-1.77
2018-02-23T18:30:46.484Z,-1.77
2018-02-23T18:33:17.105Z,-1.82
2018-02-23T18:35:47.631Z,-1.86
2018-02-23T18:38:18.701Z,-1.93
2018-02-23T18:40:48.577Z,-1.80
2018-02-23T18:43:18.926Z,-1.87
2018-02-23T18:45:48.687Z,-2.00
2018-02-23T18:48:18.134Z,-1.91
2018-02-23T18:50:48.926Z,-2.09
2018-02-23T18:53:18.519Z,-2.03
2018-02-23T18:55:48.050Z,-2.08
2018-02-23T18:58:18.658Z,-2.08
2018-02-23T19:00:49.764Z,-1.98
2018-02-23T19:03:19.790Z,-1.99
2018-02-23T19:05:49.467Z,-2.01
2018-02-23T19:08:19.120Z,-2.10
2018-02-23T19:10:48.695Z,-2.06
2018-02-23T19:13:18.399Z,-2.01
2018-02-23T19:15:48.174Z,-1.97
2018-02-23T19:18:18.632Z,-2.08
2018-02-23T19:20:50.051Z,-2.11
2018-02-23T19:23:21.279Z,-2.10
2018-02-23T19:25:51.144Z,-1.97
2018-02-23T19:28:21.630Z,-2.14
2018-02-23T19:30:52.212Z,-2.08
2018-02-23T19:33:21.926Z,-2.08
2018-02-23T19:35:52.178Z,-2.27
2018-02-23T19:38:22.745Z,-2.19
2018-02-23T19:40:52.290Z,-2.09
2018-02-23T19:43:22.159Z,-2.26
2018-02-23T19:45:51.745Z,-2.16
2018-02-23T19:48:21.471Z,-2.13
2018-02-23T19:50:51.289Z,-2.16
2018-02-23T19:53:20.960Z,-2.15
2018-02-23T19:55:50.715Z,-2.23
2018-02-23T19:58:20.733Z,-2.26
2018-02-23T20:00:51.243Z,-2.18
2018-02-23T20:03:20.822Z,-2.28
2018-02-23T20:05:50.739Z,-2.35
2018-02-23T20:08:21.082Z,-2.28
2018-02-23T20:10:50.602Z,-2.35
2018-02-23T20:13:20.589Z,-2.44
2018-02-23T20:15:50.202Z,-2.49
2018-02-23T20:18:19.807Z,-2.52
2018-02-23T20:20:50.252Z,-2.61
2018-02-23T20:23:19.850Z,-2.69
2018-02-23T20:25:49.651Z,-2.59
2018-02-23T20:28:19.153Z,-2.60
2018-02-23T20:30:48.810Z,-2.84
2018-02-23T20:33:18.684Z,-2.87
2018-02-23T20:35:48.371Z,-2.90
2018-02-23T20:38:17.862Z,-2.92
2018-02-23T20:40:47.918Z,-2.88
2018-02-23T20:43:17.579Z,-2.88
2018-02-23T20:45:47.200Z,-2.88
2018-02-23T20:48:17.157Z,-3.03
2018-02-23T20:50:46.719Z,-2.99
2018-02-23T20:53:16.336Z,-3.04
2018-02-23T20:55:46.253Z,-3.05
2018-02-23T20:58:15.743Z,-3.09
2018-02-23T21:00:45.690Z,-3.18
2018-02-23T21:03:16.369Z,-3.18
2018-02-23T21:05:45.971Z,-3.42
2018-02-23T21:08:15.606Z,-3.22
2018-02-23T21:10:45.798Z,-3.23
2018-02-23T21:13:15.810Z,-3.21
2018-02-23T21:15:45.844Z,-3.26
2018-02-23T21:18:15.731Z,-3.21
2018-02-23T21:20:45.224Z,-3.17
2018-02-23T21:23:14.700Z,-3.16
2018-02-23T21:25:44.240Z,-3.22
2018-02-23T21:28:13.839Z,-3.34
2018-02-23T21:30:43.836Z,-3.26
2018-02-23T21:33:13.326Z,-3.31
2018-02-23T21:35:43.031Z,-3.32
2018-02-23T21:38:12.699Z,-3.43
2018-02-23T21:40:42.521Z,-3.45
2018-02-23T21:43:12.025Z,-3.37
2018-02-23T21:45:41.878Z,-3.51
2018-02-23T21:48:11.428Z,-3.64
2018-02-23T21:50:41.143Z,-3.49
2018-02-23T21:53:10.695Z,-3.42
2018-02-23T21:55:40.182Z,-3.54
2018-02-23T21:58:10.744Z,-3.59
2018-02-23T22:00:40.198Z,-3.50
2018-02-23T22:03:10.707Z,-3.70
2018-02-23T22:05:40.987Z,-3.65
2018-02-23T22:08:11.182Z,-3.55
2018-02-23T22:10:40.969Z,-3.50
2018-02-23T22:13:11.421Z,-3.54
2018-02-23T22:15:41.152Z,-3.52
2018-02-23T22:18:10.732Z,-3.46
2018-02-23T22:20:40.259Z,-3.55
2018-02-23T22:23:10.590Z,-3.62
2018-02-23T22:25:41.187Z,-3.69
2018-02-23T22:28:11.712Z,-3.57
2018-02-23T22:30:42.482Z,-3.53
2018-02-23T22:33:12.174Z,-3.56
2018-02-23T22:35:41.835Z,-3.61
2018-02-23T22:38:11.878Z,-3.63
2018-02-23T22:40:41.512Z,-3.53
2018-02-23T22:43:11.959Z,-3.53
2018-02-23T22:45:42.240Z,-3.65
2018-02-23T22:48:11.765Z,-3.66
2018-02-23T22:50:41.354Z,-3.78
2018-02-23T22:53:11.154Z,-3.80
2018-02-23T22:55:40.882Z,-3.84
2018-02-23T22:58:10.449Z,-3.84
2018-02-23T23:00:40.202Z,-3.87
2018-02-23T23:03:09.701Z,-3.95
2018-02-23T23:05:39.191Z,-3.96
2018-02-23T23:08:09.006Z,-3.99
2018-02-23T23:10:38.906Z,-3.92
2018-02-23T23:13:09.508Z,-4.03
2018-02-23T23:15:39.284Z,-3.96
2018-02-23T23:18:09.589Z,-3.89
2018-02-23T23:20:39.518Z,-3.80
2018-02-23T23:23:09.925Z,-3.84
2018-02-23T23:25:39.417Z,-3.91
2018-02-23T23:28:09.332Z,-4.07
2018-02-23T23:30:39.592Z,-3.95
2018-02-23T23:33:09.388Z,-4.02
2018-02-23T23:35:38.846Z,-4.05
2018-02-23T23:38:08.701Z,-4.31
2018-02-23T23:40:39.146Z,-3.94
2018-02-23T23:43:09.151Z,-3.93
2018-02-23T23:45:39.495Z,-4.00
2018-02-23T23:48:09.594Z,-4.05
2018-02-23T23:50:39.159Z,-4.04
2018-02-23T23:53:08.678Z,-4.00
2018-02-23T23:55:38.965Z,-4.11
2018-02-23T23:58:08.990Z,-4.07
